Loznica, Serbia
Current Conditions -  °F | °C
As of 4:00 PM on Monday 26 Jan 2015 (Local Time) from LQTZ Reporting Station
Overcast Overcast  
Wind Chill: 30°   Ceiling: 1500
Heat Index: 34°   Visibility: 6mi
Dew Point: 34°   Wind: 5mph
Humidity: 100%   Direction: 270°W
Pressure: 30.18"   Gusts: NA
Location:  44.53°N, 19.22°E
Report Text: LQTZ 261400Z 27004KT 9999 BKN015 OVC030 01/01 Q1022
Loading
Personal Weather Stations






























Interactive Weather Map New forecast layout! Learn more

10-Day Weather Forecast

Advertisements
Track Severe Weather on mobile